Morrisville, Missouri
Current Conditions -  °F | °C
As of 11:52 AM on Monday 24 Nov 2014 (Local Time) from KSGF Reporting Station
Few Clouds Few Clouds  
Wind Chill: 39°   Ceiling: Unl
Heat Index: 47°   Visibility: 10mi
Dew Point: 28°   Wind: 24mph
Humidity: 48%   Direction: 260°W
Pressure: 29.79"   Gusts: 32mph
Location:  37.48°N, 93.43°W
Report Text: KSGF 241752Z 26021G28KT 10SM FEW046 08/M02 A2979 RMK AO2 PK WND 26028/1751 SLP091 T00831022 10083 20022 50012
Loading
Personal Weather Stations






























Interactive Weather Map New forecast layout! Learn more

10-Day Weather Forecast

Advertisements
Track Severe Weather on mobile